Saturday, May 26, 2018, 12:14 PM GMT
Back to Local

CWSD, Summerside Automatic Weather Reporting System

Location: , , Canada Lat: 46.433
Local Time: 12:14 PM GMT (12:14 GMT) Lon: -63.85
Time Zone: GMT Elev: 78 ft

Show me the last for .
Show Coded

Time T Td Feel RH Dir Speed Gust Alt SLP Vis Weather Sky Remarks
2018-05-26 11:00 49 45 45 87 30° 8 - - 29.64 0 None
2018-05-26 10:00 47 45 42 90 70° 12 - - 29.62 0 None
2018-05-26 09:00 48 45 44 87 60° 12 - - 29.60 0 Peak wind: 19 mph (17 kts) from 40° at 19 min
2018-05-26 08:00 49 47 44 94 50° 12 - - 29.59 0 None
2018-05-26 07:00 51 48 - 91 80° 8 - - 29.59 0 None
2018-05-26 06:00 50 48 - 92 70° 9 - - 29.58 0 None
2018-05-26 05:00 49 48 45 93 70° 10 - - 29.58 0 None
2018-05-26 04:00 50 48 45 92 70° 12 - - 29.59 0 None
2018-05-26 03:00 53 50 - 89 80° 9 - - 29.59 0 None
2018-05-26 02:00 54 51 - 87 90° 6 - - 29.59 0 None
2018-05-26 01:00 55 51 - 85 90° 5 - - 29.59 0 None
2018-05-26 00:00 56 51 - 82 160° 2 - - 29.57 0 None
2018-05-25 23:00 60 52 - 74 180° 5 - - 29.57 0 None
2018-05-25 22:00 62 52 - 69 190° 8 - - 29.55 0 None
2018-05-25 21:00 63 52 - 66 200° 10 - - 29.55 0 None
2018-05-25 20:00 59 52 - 77 200° 12 - - 29.55 0 None
2018-05-25 19:00 55 50 - 85 200° 7 - - 29.56 0 None
2018-05-25 18:00 55 51 - 85 230° 10 - - 29.57 0 None
2018-05-25 17:00 57 50 - 78 230° 15 - - 29.57 0 None
2018-05-25 16:00 53 49 - 85 240° 13 - - 29.58 0 Peak wind: 19 mph (17 kts) from 250° at 34 min
2018-05-25 15:00 55 49 - 81 250° 16 22 - 29.60 0 Peak wind: 23 mph (20 kts) from 240° at 12 min
2018-05-25 14:00 54 50 - 85 240° 15 - - 29.59 0 Peak wind: 20 mph (18 kts) from 220° at 21 min
2018-05-25 13:00 50 48 - 91 220° 14 - - 29.60 0 Peak wind: 24 mph (21 kts) from 200° at 10 min

Support USWX by starting your Amazon purchase here.